Hosford, FL (32334)

1:54 PM EDT on April 01, 2015 (GMT -0400)
RAWS | | Change Station
CLOSE
Current Station
Personal Weather Station
Location: Telogia, FL
Elevation: 125 ft
Nearby Weather Stations

Elev 125 ft 30.36 °N, 84.61 °W | Updated 39 minutes ago

Partly Cloudy
Partly Cloudy
84 °F
Feels Like 84 °F
N
3
Wind Variable Wind from West
Gusts 8.0 mph

Today
High -- | Low -- °F
--% Chance of Precip.
Yesterday
High -- | Low -- °F
Precip. -- in
7:28 AM 7:57 PM
Waxing Gibbous, 93% visible
Pressure 30.09 in
Visibility 10.0 miles
Clouds Scattered Clouds 4200 ft
Scattered Clouds 25000 ft
Heat Index 84 °F
Dew Point 60 °F
Humidity 44%
Rainfall in
Snow Depth Not available.
UV 9 out of 12
Pollen 10.50 out of 12
Air Quality Not available.
Flu Activity Not available.
METAR KTLH 011653Z 29010G14KT 10SM SCT042 SCT250 28/16 A3009 RMK AO2 SLP187 T02780156

More Conditions Fewer Conditions

Pressure 30.09 in
Visibility 10.0 miles
Clouds Scattered Clouds 4200 ft
Scattered Clouds 25000 ft
Heat Index 84 °F
Dew Point 60 °F
Humidity 44%
Rainfall in
Snow Depth Not available.
UV 9 out of 12
Pollen 10.50 out of 12
Air Quality Not available.
Flu Activity Not available.
METAR KTLH 011653Z 29010G14KT 10SM SCT042 SCT250 28/16 A3009 RMK AO2 SLP187 T02780156

More Conditions Fewer Conditions

10-Day Weather Forecast

Almanac

Astronomy

Apr. 01, 2015 Rise Set
Actual Time
Civil Twilight
Nautical Twilight
Astronomical Twilight
Moon
Length of Visible Light
Length of Day
Tomorrow will be .
, % of the Moon is Illuminated

Today's Extremes

State Highs State Lows

Community

WunderPhotos

Upload Photos

1,810,018 photos uploaded!

WunderBlogs® & News

Nearby

Air Quality

  Air Quality AQ Index Pollutant
Not available.

Snow Depth

Station Depth Elevation

Earthquake Activity

City Distance Mag. Time & Date
Minimum magnitude displayed is 2.5.

Coastal Water Temperatures

Place Temperature

Stations

Nearby Weather Stations

Station Location Temp. Windchill Dew Point Humidity Wind Precip. Elev Updated Type